Time;durP1;ratioP1;P1;durP2;ratioP2;P2;SDS_P1;SDS_P2;PMS_P1;PMS_P2;Temp;Humidity;BMP_temperature;BMP_pressure;BME280_temperature;BME280_humidity;BME280_pressure;Samples;Min_cycle;Max_cycle;Signal;HPM_P1;HPM_P2
2022/11/02 00:01:11;;;;;;;80.57;34.93;;;13.00;99.90;;;;;;5097087;28;20493;-76
2022/11/02 00:03:37;;;;;;;76.83;35.13;;;13.00;99.90;;;;;;5115612;28;20519;-73
2022/11/02 00:06:03;;;;;;;81.93;37.43;;;13.00;99.90;;;;;;5097009;28;20855;-73
2022/11/02 00:08:28;;;;;;;72.07;35.60;;;13.00;99.90;;;;;;5115199;28;20199;-73
2022/11/02 00:10:54;;;;;;;77.07;37.83;;;13.00;99.90;;;;;;5115266;28;20195;-76
2022/11/02 00:13:20;;;;;;;82.80;37.60;;;13.00;99.90;;;;;;5096956;28;20180;-76
2022/11/02 00:15:46;;;;;;;87.57;38.37;;;13.00;99.90;;;;;;5115115;28;20187;-73
2022/11/02 00:18:13;;;;;;;75.07;35.57;;;13.00;99.90;;;;;;5115012;28;20175;-76
2022/11/02 00:20:41;;;;;;;69.20;33.27;;;13.00;99.90;;;;;;5115000;28;20427;-74
2022/11/02 00:23:09;;;;;;;79.60;35.20;;;13.00;99.90;;;;;;5096403;28;20958;-73
2022/11/02 00:25:38;;;;;;;78.23;35.40;;;13.00;99.90;;;;;;5096821;28;20436;-76
2022/11/02 00:28:04;;;;;;;75.47;34.97;;;13.00;99.90;;;;;;5114896;28;20933;-74
2022/11/02 00:30:30;;;;;;;81.43;33.87;;;13.00;99.90;;;;;;5114882;28;20508;-73
2022/11/02 00:32:56;;;;;;;78.60;36.10;;;13.00;99.90;;;;;;5096144;28;20203;-73
2022/11/02 00:35:22;;;;;;;79.83;32.67;;;13.00;99.90;;;;;;5114678;28;20435;-76
2022/11/02 00:37:47;;;;;;;68.57;32.93;;;13.00;99.90;;;;;;5096473;28;20901;-73
2022/11/02 00:40:13;;;;;;;69.43;34.20;;;13.00;99.90;;;;;;5096503;28;20191;-76
2022/11/02 00:42:39;;;;;;;79.23;33.40;;;13.10;99.90;;;;;;5114606;28;20247;-76
2022/11/02 00:45:06;;;;;;;64.80;32.33;;;13.10;99.90;;;;;;5096178;28;20325;-73
2022/11/02 00:47:32;;;;;;;72.40;30.80;;;13.10;99.90;;;;;;5096444;28;20175;-76
2022/11/02 00:49:57;;;;;;;65.60;30.03;;;13.10;99.90;;;;;;5115050;28;20508;-73
2022/11/02 00:52:23;;;;;;;66.10;31.13;;;13.10;99.90;;;;;;5096289;28;20427;-75
2022/11/02 00:54:49;;;;;;;61.73;30.00;;;13.10;99.90;;;;;;5115043;28;20217;-76
2022/11/02 00:57:14;;;;;;;64.40;29.50;;;13.10;99.90;;;;;;5096187;28;20176;-72
2022/11/02 00:59:40;;;;;;;58.47;28.97;;;13.10;99.90;;;;;;5096323;28;20691;-73
2022/11/02 01:02:06;;;;;;;57.60;28.00;;;13.10;99.90;;;;;;5096182;28;20655;-73
2022/11/02 01:04:31;;;;;;;52.87;27.20;;;13.10;99.90;;;;;;5096189;28;20234;-76
2022/11/02 01:06:57;;;;;;;51.00;26.27;;;13.20;99.90;;;;;;5114379;28;20538;-73
2022/11/02 01:09:23;;;;;;;64.37;28.50;;;13.20;99.90;;;;;;5095991;28;20607;-73
2022/11/02 01:11:49;;;;;;;53.57;26.87;;;13.20;99.90;;;;;;5096108;28;20596;-76
2022/11/02 01:14:14;;;;;;;51.87;26.40;;;13.20;99.90;;;;;;5096107;28;20424;-76
2022/11/02 01:16:40;;;;;;;49.23;24.77;;;13.20;99.90;;;;;;5114288;28;20255;-73
2022/11/02 01:19:06;;;;;;;56.03;26.60;;;13.20;99.90;;;;;;5114296;28;20179;-77
2022/11/02 01:21:32;;;;;;;53.53;28.40;;;13.20;99.90;;;;;;5096277;28;20175;-72
2022/11/02 01:23:58;;;;;;;52.30;27.17;;;13.20;99.90;;;;;;5092144;28;21062;-73
2022/11/02 01:26:23;;;;;;;46.93;26.80;;;13.20;99.90;;;;;;5093679;28;20549;-73
2022/11/02 01:28:51;;;;;;;51.50;26.00;;;13.20;99.90;;;;;;5092527;28;20176;-76
2022/11/02 01:31:17;;;;;;;50.80;25.10;;;13.20;99.90;;;;;;5093543;28;20241;-73
2022/11/02 01:33:44;;;;;;;47.90;24.30;;;13.30;99.90;;;;;;5092735;28;20433;-72
2022/11/02 01:36:11;;;;;;;47.73;24.00;;;13.30;99.90;;;;;;5092319;28;20280;-73
2022/11/02 01:38:37;;;;;;;53.03;26.40;;;13.30;99.90;;;;;;5093873;28;20413;-76
2022/11/02 01:41:03;;;;;;;56.47;26.43;;;13.30;99.90;;;;;;5093492;28;20455;-77
2022/11/02 01:43:34;;;;;;;51.10;27.57;;;13.30;99.90;;;;;;5092348;28;20360;-73
2022/11/02 01:46:05;;;;;;;46.57;22.97;;;13.30;99.90;;;;;;5094747;28;20439;-77
2022/11/02 01:48:44;;;;;;;52.73;25.77;;;13.30;99.90;;;;;;5096517;28;21010;-76
2022/11/02 01:51:24;;;;;;;47.10;25.27;;;13.30;99.90;;;;;;5096364;28;20436;-73
2022/11/02 01:53:51;;;;;;;47.93;26.10;;;13.30;99.90;;;;;;5097953;28;20424;-73
2022/11/02 01:56:21;;;;;;;49.53;26.40;;;13.30;99.90;;;;;;5096222;28;20610;-76
2022/11/02 01:58:53;;;;;;;60.10;26.57;;;13.30;99.90;;;;;;5096161;28;20428;-76
2022/11/02 02:01:19;;;;;;;50.63;25.30;;;13.30;99.90;;;;;;5096116;28;20428;-73
2022/11/02 02:03:46;;;;;;;57.73;26.83;;;13.30;99.90;;;;;;5097551;28;20961;-77
2022/11/02 02:06:14;;;;;;;52.77;27.10;;;13.30;99.90;;;;;;5097291;28;20747;-76
2022/11/02 02:08:45;;;;;;;46.30;24.70;;;13.40;99.90;;;;;;5097454;28;20917;-76
2022/11/02 02:11:32;;;;;;;54.13;25.93;;;13.40;99.90;;;;;;5095936;28;20424;-73
2022/11/02 02:14:10;;;;;;;52.90;28.47;;;13.40;99.90;;;;;;5097446;28;20436;-73
2022/11/02 02:17:07;;;;;;;52.07;25.47;;;13.40;99.90;;;;;;5095898;28;20412;-73
2022/11/02 02:19:53;;;;;;;58.70;26.83;;;13.40;99.90;;;;;;5095976;28;20802;-73
2022/11/02 02:22:28;;;;;;;53.83;27.00;;;13.40;99.90;;;;;;5096646;28;20417;-72
2022/11/02 02:25:23;;;;;;;54.77;25.97;;;13.40;99.90;;;;;;5095393;28;20883;-76
2022/11/02 02:28:12;;;;;;;54.40;26.40;;;13.40;99.90;;;;;;5095710;28;20424;-76
2022/11/02 02:30:45;;;;;;;53.27;25.03;;;13.40;99.90;;;;;;5096874;28;20425;-75
2022/11/02 02:33:26;;;;;;;53.97;27.37;;;13.40;99.90;;;;;;5096950;28;20416;-73
2022/11/02 02:36:01;;;;;;;52.00;26.43;;;13.40;99.90;;;;;;5095427;28;20443;-76
2022/11/02 02:38:32;;;;;;;54.67;27.80;;;13.40;99.90;;;;;;5095605;28;20443;-73
2022/11/02 02:41:03;;;;;;;58.67;27.57;;;13.40;99.90;;;;;;5095388;28;20444;-76
2022/11/02 02:43:36;;;;;;;60.70;27.20;;;13.40;99.90;;;;;;5095395;28;20535;-73
2022/11/02 02:46:08;;;;;;;56.23;27.13;;;13.30;99.90;;;;;;5096521;28;20495;-76
2022/11/02 02:48:36;;;;;;;56.77;27.83;;;13.30;99.90;;;;;;5096740;28;20436;-73
2022/11/02 02:51:09;;;;;;;54.40;26.93;;;13.40;99.90;;;;;;5096421;28;20949;-73
2022/11/02 02:53:40;;;;;;;47.80;25.27;;;13.40;99.90;;;;;;5095194;28;20425;-73
2022/11/02 02:56:07;;;;;;;55.13;26.10;;;13.40;99.90;;;;;;5094570;28;20437;-73
2022/11/02 02:58:46;;;;;;;53.33;23.87;;;13.40;99.90;;;;;;5096493;28;20826;-76
2022/11/02 03:01:14;;;;;;;53.33;25.40;;;13.40;99.90;;;;;;5095069;28;20957;-76
2022/11/02 03:03:42;;;;;;;56.27;25.70;;;13.40;99.90;;;;;;5096219;28;20470;-76
2022/11/02 03:06:30;;;;;;;54.23;26.60;;;13.40;99.90;;;;;;5094788;28;20453;-73
2022/11/02 03:09:08;;;;;;;53.03;25.20;;;13.40;99.90;;;;;;5096164;28;20455;-72
2022/11/02 03:11:40;;;;;;;59.00;25.90;;;13.40;99.90;;;;;;5096262;28;20820;-76
2022/11/02 03:14:52;;;;;;;54.77;27.63;;;13.40;99.90;;;;;;5094815;28;20510;-76
2022/11/02 03:17:24;;;;;;;54.33;27.40;;;13.40;99.90;;;;;;5050034;28;20429;-73
2022/11/02 03:19:58;;;;;;;47.10;23.60;;;13.40;99.90;;;;;;5095060;28;20522;-76
2022/11/02 03:22:42;;;;;;;61.63;28.40;;;13.40;99.90;;;;;;5095895;28;20404;-73
2022/11/02 03:25:17;;;;;;;54.53;25.63;;;13.40;99.90;;;;;;5114434;28;20540;-76
2022/11/02 03:27:58;;;;;;;52.33;25.87;;;13.40;99.90;;;;;;5097800;28;20920;-73
2022/11/02 03:30:29;;;;;;;52.57;24.77;;;13.40;99.90;;;;;;5116005;28;20424;-76
2022/11/02 03:33:10;;;;;;;57.60;27.73;;;13.40;99.90;;;;;;5097735;28;20420;-72
2022/11/02 03:35:46;;;;;;;57.57;27.87;;;13.40;99.90;;;;;;5097657;28;20458;-76
2022/11/02 03:38:50;;;;;;;57.77;25.47;;;13.40;99.90;;;;;;5115892;28;20904;-73
2022/11/02 03:41:19;;;;;;;59.90;27.63;;;13.40;99.90;;;;;;5083062;28;20476;-73
2022/11/02 03:43:47;;;;;;;60.70;26.80;;;13.40;99.90;;;;;;5115971;28;20499;-77
2022/11/02 03:46:15;;;;;;;50.53;26.23;;;13.40;99.90;;;;;;5115752;28;20424;-73
2022/11/02 03:48:46;;;;;;;50.90;24.77;;;13.50;99.90;;;;;;5097472;28;20415;-76
2022/11/02 03:51:16;;;;;;;56.77;25.93;;;13.50;99.90;;;;;;5097316;28;20496;-73
2022/11/02 03:54:05;;;;;;;59.93;28.00;;;13.50;99.90;;;;;;5097287;28;20484;-73
2022/11/02 03:56:54;;;;;;;60.70;26.43;;;13.40;99.90;;;;;;5097301;28;20408;-76
2022/11/02 03:59:19;;;;;;;60.47;26.90;;;13.40;99.90;;;;;;5115919;28;20431;-77
2022/11/02 04:01:49;;;;;;;57.13;24.70;;;13.40;99.90;;;;;;5115483;28;20813;-73
2022/11/02 04:04:15;;;;;;;55.80;27.10;;;13.40;99.90;;;;;;5097096;28;20211;-76
2022/11/02 04:06:43;;;;;;;65.13;27.90;;;13.40;99.90;;;;;;5097217;28;20396;-73
2022/11/02 04:09:09;;;;;;;56.67;27.30;;;13.40;99.90;;;;;;5096025;28;21039;-76
2022/11/02 04:14:37;;;;;;;50.63;25.53;;;13.40;99.90;;;;;;5115836;28;21132;-73
2022/11/02 04:19:53;;;;;;;49.20;23.90;;;13.30;99.90;;;;;;5115964;28;20439;-73
2022/11/02 04:25:19;;;;;;;56.23;25.20;;;13.30;99.90;;;;;;5114816;28;20482;-73
2022/11/02 04:27:50;;;;;;;48.63;24.03;;;13.30;99.90;;;;;;5115064;28;20880;-76
2022/11/02 04:30:18;;;;;;;55.43;25.63;;;13.20;99.90;;;;;;5096699;28;20435;-73
2022/11/02 04:35:31;;;;;;;55.53;23.97;;;13.20;99.90;;;;;;5114826;28;20424;-76
2022/11/02 04:40:42;;;;;;;55.87;26.77;;;13.30;99.90;;;;;;5114973;28;20431;-73
2022/11/02 04:43:08;;;;;;;49.50;24.03;;;13.30;99.90;;;;;;5114928;28;20751;-76
2022/11/02 04:45:34;;;;;;;46.70;22.77;;;13.30;99.90;;;;;;5096379;28;20428;-73
2022/11/02 04:48:09;;;;;;;45.17;22.27;;;13.40;99.90;;;;;;5114698;28;20399;-76
2022/11/02 04:50:35;;;;;;;47.80;23.00;;;13.40;99.90;;;;;;5096341;28;20278;-73
2022/11/02 04:53:03;;;;;;;44.03;22.80;;;13.40;99.90;;;;;;5096143;28;20416;-76
2022/11/02 04:55:29;;;;;;;39.53;21.80;;;13.50;99.90;;;;;;5114388;28;20982;-76
2022/11/02 04:57:55;;;;;;;45.93;22.00;;;13.50;99.90;;;;;;5114429;28;20447;-76
2022/11/02 05:00:20;;;;;;;39.90;20.30;;;13.50;99.90;;;;;;5114330;28;20468;-76
2022/11/02 05:02:47;;;;;;;42.20;20.67;;;13.50;99.90;;;;;;5114369;28;20175;-76
2022/11/02 05:05:13;;;;;;;40.83;20.60;;;13.50;99.90;;;;;;5096025;28;20472;-73
2022/11/02 05:07:39;;;;;;;43.47;21.93;;;13.50;99.90;;;;;;5114262;28;20399;-74
2022/11/02 05:10:05;;;;;;;37.93;19.90;;;13.50;99.90;;;;;;5114352;28;20477;-76
2022/11/02 05:12:30;;;;;;;41.10;19.90;;;13.50;99.90;;;;;;5095584;28;20731;-74
2022/11/02 05:14:56;;;;;;;40.10;20.67;;;13.50;99.90;;;;;;5114120;28;20479;-76
2022/11/02 05:17:22;;;;;;;42.83;22.00;;;13.50;99.90;;;;;;5114275;28;20247;-76
2022/11/02 05:19:47;;;;;;;39.93;20.87;;;13.50;99.90;;;;;;5114523;28;20671;-73
2022/11/02 05:22:13;;;;;;;38.70;20.73;;;13.50;99.90;;;;;;5114154;28;20560;-74
2022/11/02 05:24:39;;;;;;;41.27;21.13;;;13.50;99.90;;;;;;5113683;28;20257;-73
2022/11/02 05:27:04;;;;;;;43.60;21.53;;;13.50;99.90;;;;;;5114153;28;20625;-74
2022/11/02 05:29:30;;;;;;;42.67;21.70;;;13.50;99.90;;;;;;5095632;28;20204;-76
2022/11/02 05:31:56;;;;;;;38.83;20.57;;;13.50;99.90;;;;;;5095855;28;20172;-74
2022/11/02 05:34:22;;;;;;;43.07;22.67;;;13.50;99.90;;;;;;5095402;28;20203;-77
2022/11/02 05:36:48;;;;;;;41.07;21.40;;;13.50;99.90;;;;;;5112520;28;20396;-73
2022/11/02 05:39:14;;;;;;;42.90;23.30;;;13.50;99.90;;;;;;5095419;28;20184;-73
2022/11/02 05:41:39;;;;;;;39.20;20.80;;;13.50;99.90;;;;;;5114023;28;20433;-75
2022/11/02 05:44:05;;;;;;;39.17;22.50;;;13.50;99.90;;;;;;5095637;28;21061;-73
2022/11/02 05:46:31;;;;;;;41.50;21.37;;;13.50;99.90;;;;;;5095702;28;20168;-75
2022/11/02 05:48:56;;;;;;;38.23;21.27;;;13.50;99.90;;;;;;5114112;28;20231;-76
2022/11/02 05:51:22;;;;;;;35.30;19.80;;;13.50;99.90;;;;;;5113872;28;20286;-76
2022/11/02 05:53:47;;;;;;;38.07;21.63;;;13.50;99.90;;;;;;5114035;28;20176;-73
2022/11/02 05:56:13;;;;;;;46.30;20.93;;;13.60;99.90;;;;;;5095554;28;20571;-73
2022/11/02 05:58:39;;;;;;;35.73;20.40;;;13.60;99.90;;;;;;5114167;28;20179;-73
2022/11/02 06:01:06;;;;;;;41.97;20.50;;;13.60;99.90;;;;;;5113555;28;20680;-73
2022/11/02 06:03:33;;;;;;;40.20;21.13;;;13.60;99.90;;;;;;5095395;28;20468;-73
2022/11/02 06:06:08;;;;;;;46.30;20.50;;;13.60;99.90;;;;;;5095514;28;20432;-73
2022/11/02 06:08:35;;;;;;;45.47;22.83;;;13.60;99.90;;;;;;5095496;28;20423;-73
2022/11/02 06:11:09;;;;;;;41.00;21.37;;;13.60;99.90;;;;;;5113649;28;20424;-73
2022/11/02 06:13:35;;;;;;;41.73;22.10;;;13.60;99.90;;;;;;5095446;28;20435;-76
2022/11/02 06:16:02;;;;;;;45.73;22.30;;;13.60;99.90;;;;;;5095353;28;20428;-76
2022/11/02 06:18:30;;;;;;;42.83;22.53;;;13.70;99.90;;;;;;5095505;28;20416;-76
2022/11/02 06:20:57;;;;;;;46.00;22.13;;;13.70;99.90;;;;;;5095327;28;21039;-73
2022/11/02 06:23:25;;;;;;;43.90;22.83;;;13.70;99.90;;;;;;5094990;28;20478;-73
2022/11/02 06:25:51;;;;;;;49.30;24.27;;;13.70;99.90;;;;;;5113590;28;20948;-76
2022/11/02 06:28:17;;;;;;;44.67;22.33;;;13.70;99.90;;;;;;5095371;28;20424;-76
2022/11/02 06:30:43;;;;;;;42.43;21.10;;;13.70;99.90;;;;;;5113922;28;20424;-74
2022/11/02 06:33:08;;;;;;;44.43;22.83;;;13.70;99.90;;;;;;5116901;28;20225;-76
2022/11/02 06:35:34;;;;;;;37.47;19.80;;;13.70;99.90;;;;;;5098593;28;20191;-76
2022/11/02 06:37:59;;;;;;;41.60;19.50;;;13.70;99.90;;;;;;5117026;28;20191;-76
2022/11/02 06:40:25;;;;;;;36.10;20.80;;;13.70;99.90;;;;;;5116293;28;20668;-76
2022/11/02 06:42:55;;;;;;;39.03;18.40;;;13.70;99.90;;;;;;5090100;28;20552;-76
2022/11/02 06:45:21;;;;;;;39.60;20.27;;;13.70;99.90;;;;;;5114411;28;20275;-76
2022/11/02 06:47:47;;;;;;;34.43;19.60;;;13.70;99.90;;;;;;5109490;28;20824;-73
2022/11/02 06:50:14;;;;;;;41.63;21.00;;;13.60;99.90;;;;;;5098055;28;20453;-76
2022/11/02 06:52:44;;;;;;;41.43;21.07;;;13.60;99.90;;;;;;5098080;28;20412;-73
2022/11/02 06:55:10;;;;;;;38.60;19.50;;;13.60;99.90;;;;;;5098094;28;20507;-76
2022/11/02 06:57:37;;;;;;;38.03;19.27;;;13.60;99.90;;;;;;5116292;28;20425;-76
2022/11/02 07:00:05;;;;;;;39.60;19.47;;;13.60;99.90;;;;;;5098035;28;20569;-76
2022/11/02 07:02:30;;;;;;;35.87;19.47;;;13.60;99.90;;;;;;5096984;28;20787;-76
2022/11/02 07:04:56;;;;;;;39.27;19.93;;;13.60;99.90;;;;;;5114415;28;20483;-73
2022/11/02 07:07:22;;;;;;;42.23;20.53;;;13.60;99.90;;;;;;5092685;28;20305;-75
2022/11/02 07:09:49;;;;;;;38.20;20.50;;;13.60;99.90;;;;;;5094543;28;20781;-76
2022/11/02 07:12:15;;;;;;;37.63;18.80;;;13.60;99.90;;;;;;5110731;27;20681;-75
2022/11/02 07:14:40;;;;;;;39.73;18.77;;;13.60;99.90;;;;;;5094535;28;20448;-73
2022/11/02 07:17:06;;;;;;;35.63;18.80;;;13.60;99.90;;;;;;5096167;28;20176;-73
2022/11/02 07:19:31;;;;;;;38.10;19.20;;;13.60;99.90;;;;;;5116254;28;20200;-76
2022/11/02 07:21:58;;;;;;;33.97;19.63;;;13.70;99.90;;;;;;5115652;28;20184;-78
2022/11/02 07:24:23;;;;;;;39.37;19.30;;;13.60;99.90;;;;;;5092583;28;20302;-72
2022/11/02 07:26:50;;;;;;;40.40;20.37;;;13.60;99.90;;;;;;5093190;28;20914;-72
2022/11/02 07:29:16;;;;;;;35.17;17.07;;;13.70;99.90;;;;;;5095659;28;20284;-76
2022/11/02 07:31:42;;;;;;;40.90;20.60;;;13.70;99.90;;;;;;5095153;28;20759;-74
2022/11/02 07:34:07;;;;;;;34.87;18.27;;;13.70;99.90;;;;;;5092827;28;20441;-76
2022/11/02 07:36:33;;;;;;;33.87;19.07;;;13.70;99.90;;;;;;5074918;28;20177;-75
2022/11/02 07:38:58;;;;;;;48.03;26.83;;;13.70;99.90;;;;;;5088769;28;20534;-73
2022/11/02 07:41:24;;;;;;;42.70;23.70;;;13.70;99.90;;;;;;5093522;28;20257;-72
2022/11/02 07:43:50;;;;;;;40.80;22.20;;;13.80;99.90;;;;;;5091421;28;20426;-76
2022/11/02 07:46:15;;;;;;;40.53;21.90;;;13.80;99.90;;;;;;5090250;28;20199;-73
2022/11/02 07:48:41;;;;;;;53.13;26.20;;;13.80;99.90;;;;;;5089545;28;20267;-74
2022/11/02 07:51:07;;;;;;;51.17;29.50;;;13.80;99.90;;;;;;5085034;28;20202;-70
2022/11/02 07:53:33;;;;;;;36.03;23.07;;;13.80;99.90;;;;;;5089994;28;20363;-70
2022/11/02 07:56:05;;;;;;;38.50;22.87;;;13.80;99.90;;;;;;5084667;28;20286;-74
2022/11/02 07:58:31;;;;;;;35.13;20.17;;;13.90;99.90;;;;;;5090795;28;20442;-71
2022/11/02 08:00:58;;;;;;;29.63;17.10;;;13.90;99.90;;;;;;5093432;28;20932;-74
2022/11/02 08:03:24;;;;;;;47.50;29.20;;;13.90;99.90;;;;;;5091934;28;20420;-76
2022/11/02 08:05:50;;;;;;;49.67;25.80;;;13.90;99.90;;;;;;5091180;28;20771;-76
2022/11/02 08:08:18;;;;;;;41.43;23.43;;;14.00;99.90;;;;;;5093823;28;20521;-73
2022/11/02 08:10:46;;;;;;;36.30;20.40;;;14.00;99.90;;;;;;5089879;28;20567;-73
2022/11/02 08:13:14;;;;;;;34.33;18.30;;;14.00;99.90;;;;;;5083692;28;20477;-73
2022/11/02 08:15:40;;;;;;;36.93;20.17;;;14.00;99.90;;;;;;5080417;28;20444;-76
2022/11/02 08:18:13;;;;;;;38.67;18.40;;;14.10;99.90;;;;;;5086612;28;20511;-76
2022/11/02 08:20:39;;;;;;;34.33;19.30;;;14.10;99.90;;;;;;5088501;28;20432;-72
2022/11/02 08:23:06;;;;;;;35.43;19.47;;;14.10;99.90;;;;;;5087909;28;20429;-76
2022/11/02 08:25:32;;;;;;;37.20;18.57;;;14.10;99.90;;;;;;5111102;28;20467;-75
2022/11/02 08:27:59;;;;;;;30.50;17.20;;;14.10;99.90;;;;;;5093592;28;20428;-76
2022/11/02 08:30:26;;;;;;;37.57;17.77;;;14.20;99.90;;;;;;5110339;28;20837;-72
2022/11/02 08:32:52;;;;;;;32.20;19.30;;;14.20;99.90;;;;;;5091318;28;20809;-76
2022/11/02 08:35:18;;;;;;;29.40;17.83;;;14.20;99.90;;;;;;5105661;27;20428;-76
2022/11/02 08:37:44;;;;;;;36.00;17.77;;;14.30;99.90;;;;;;5087805;28;20813;-76
2022/11/02 08:40:10;;;;;;;29.00;15.97;;;14.30;99.90;;;;;;5105155;28;20483;-76
2022/11/02 08:42:37;;;;;;;31.03;16.60;;;14.30;99.90;;;;;;5087405;28;20187;-76
2022/11/02 08:45:05;;;;;;;30.13;15.93;;;14.40;99.90;;;;;;5085735;28;20550;-73
2022/11/02 08:47:31;;;;;;;28.13;15.67;;;14.40;99.90;;;;;;5088804;28;20505;-76
2022/11/02 08:49:57;;;;;;;26.30;14.40;;;14.50;99.90;;;;;;5090843;28;20479;-76
2022/11/02 08:52:22;;;;;;;24.97;14.40;;;14.60;99.90;;;;;;5091405;28;20763;-73
2022/11/02 08:54:48;;;;;;;25.97;15.27;;;14.70;99.90;;;;;;5109047;28;20242;-76
2022/11/02 08:57:13;;;;;;;26.90;14.70;;;14.70;99.90;;;;;;5107447;28;20171;-73
2022/11/02 08:59:39;;;;;;;30.47;15.67;;;14.80;99.90;;;;;;5088540;28;20199;-76
2022/11/02 09:02:05;;;;;;;25.43;14.30;;;14.90;99.90;;;;;;5109931;28;20655;-73
2022/11/02 09:04:30;;;;;;;23.33;14.70;;;14.90;99.90;;;;;;5090925;28;20227;-76
2022/11/02 09:06:56;;;;;;;30.50;17.40;;;14.90;99.90;;;;;;5103395;28;20404;-73
2022/11/02 09:09:22;;;;;;;28.27;14.17;;;15.00;99.90;;;;;;5107254;28;20192;-73
2022/11/02 09:11:49;;;;;;;30.40;14.97;;;15.00;99.90;;;;;;5090425;28;20190;-75
2022/11/02 09:14:15;;;;;;;28.23;15.77;;;15.10;99.90;;;;;;5090608;28;20633;-76
2022/11/02 09:16:40;;;;;;;26.23;15.50;;;15.10;99.90;;;;;;5102622;28;20403;-75
2022/11/02 09:19:06;;;;;;;27.50;15.57;;;15.20;99.90;;;;;;5102583;28;20184;-73
2022/11/02 09:21:32;;;;;;;30.27;15.63;;;15.20;99.90;;;;;;5093623;28;20202;-75
2022/11/02 09:23:57;;;;;;;24.83;14.73;;;15.20;99.90;;;;;;5090102;28;20243;-76
2022/11/02 09:26:23;;;;;;;30.43;15.63;;;15.20;99.90;;;;;;5091984;28;20278;-76
2022/11/02 09:28:48;;;;;;;25.30;14.63;;;15.20;99.90;;;;;;5110448;28;20180;-73
2022/11/02 09:31:14;;;;;;;25.73;14.70;;;15.20;99.90;;;;;;5109554;28;20283;-76
2022/11/02 09:33:40;;;;;;;30.47;14.37;;;15.20;99.90;;;;;;5109296;28;20258;-76
2022/11/02 09:36:06;;;;;;;25.40;14.23;;;15.20;99.90;;;;;;5091943;28;20200;-73
2022/11/02 09:38:32;;;;;;;23.17;13.07;;;15.20;99.90;;;;;;5093110;28;20191;-76
2022/11/02 09:40:57;;;;;;;26.73;14.57;;;15.30;99.90;;;;;;5109622;28;20435;-76
2022/11/02 09:43:54;;;;;;;22.97;13.17;;;15.20;99.90;;;;;;5094081;28;20642;-76
2022/11/02 09:46:24;;;;;;;24.40;13.73;;;15.30;99.90;;;;;;5112256;28;20715;-72
2022/11/02 09:48:59;;;;;;;23.07;13.20;;;15.20;99.90;;;;;;5112999;28;20451;-73
2022/11/02 09:51:52;;;;;;;23.80;13.27;;;15.30;99.90;;;;;;5092160;28;20979;-73
2022/11/02 09:54:23;;;;;;;25.70;14.93;;;15.30;99.90;;;;;;5106315;28;20432;-76
2022/11/02 09:56:51;;;;;;;23.00;13.70;;;15.30;99.90;;;;;;5109790;28;20443;-72
2022/11/02 09:59:22;;;;;;;26.97;14.50;;;15.30;99.90;;;;;;5111358;28;20437;-73
2022/11/02 10:01:47;;;;;;;25.50;15.10;;;15.30;99.90;;;;;;5090128;28;20542;-73
2022/11/02 10:04:25;;;;;;;29.20;14.50;;;15.30;99.90;;;;;;5084749;28;20956;-73
2022/11/02 10:07:10;;;;;;;24.27;14.60;;;15.30;99.90;;;;;;5107771;28;20163;-76
2022/11/02 10:09:41;;;;;;;28.43;15.17;;;15.40;99.90;;;;;;5055224;28;20451;-76
2022/11/02 10:12:13;;;;;;;29.60;14.90;;;15.40;99.90;;;;;;5107949;28;20407;-76
2022/11/02 10:14:58;;;;;;;26.37;15.90;;;15.40;99.90;;;;;;5103796;28;21211;-75
2022/11/02 10:17:31;;;;;;;26.47;15.33;;;15.40;99.90;;;;;;5104343;28;20399;-76
2022/11/02 10:20:01;;;;;;;23.20;13.67;;;15.40;99.90;;;;;;5107222;28;20456;-75
2022/11/02 10:22:33;;;;;;;25.47;15.10;;;15.50;99.90;;;;;;5108500;28;20976;-72
2022/11/02 10:25:03;;;;;;;28.73;15.07;;;15.40;99.90;;;;;;5107320;28;20718;-76
2022/11/02 10:27:38;;;;;;;32.23;16.90;;;15.40;99.90;;;;;;5104176;28;20511;-73
2022/11/02 10:30:09;;;;;;;23.80;14.37;;;15.50;99.90;;;;;;5091846;28;20508;-75
2022/11/02 10:32:38;;;;;;;26.13;14.23;;;15.50;99.90;;;;;;5102324;28;20480;-72
2022/11/02 10:35:14;;;;;;;23.47;13.23;;;15.50;99.90;;;;;;5083614;28;20447;-72
2022/11/02 10:37:40;;;;;;;25.13;15.07;;;15.50;99.90;;;;;;5095154;28;20397;-72
2022/11/02 10:40:44;;;;;;;28.83;16.90;;;15.50;99.90;;;;;;5081993;28;20436;-75
2022/11/02 10:43:27;;;;;;;26.03;14.77;;;15.40;99.90;;;;;;5075803;28;20522;-75
2022/11/02 10:46:12;;;;;;;29.30;15.53;;;15.30;99.90;;;;;;5090572;28;20433;-75
2022/11/02 10:48:55;;;;;;;26.00;15.87;;;15.30;99.90;;;;;;5090921;28;20522;-72
2022/11/02 10:51:23;;;;;;;30.30;15.53;;;15.30;99.90;;;;;;5086062;28;21192;-75
2022/11/02 10:53:51;;;;;;;27.63;15.43;;;15.30;99.90;;;;;;5091862;28;20431;-72
2022/11/02 10:56:24;;;;;;;27.37;15.13;;;15.30;99.90;;;;;;5077200;28;20441;-72
2022/11/02 10:59:13;;;;;;;27.90;14.30;;;15.40;99.90;;;;;;5073509;28;20436;-73
2022/11/02 11:01:45;;;;;;;23.90;14.83;;;15.40;99.90;;;;;;5081654;28;20870;-75
2022/11/02 11:04:26;;;;;;;26.10;14.83;;;15.40;99.90;;;;;;5070519;28;20472;-72
2022/11/02 11:06:55;;;;;;;23.00;13.57;;;15.50;99.90;;;;;;5103630;28;20467;-75
2022/11/02 11:09:29;;;;;;;23.87;14.93;;;15.50;99.90;;;;;;5113835;27;20438;-72
2022/11/02 11:12:00;;;;;;;24.13;15.07;;;15.60;99.90;;;;;;5092988;28;20416;-72
2022/11/02 11:14:34;;;;;;;24.23;14.23;;;15.60;99.90;;;;;;5111215;28;20459;-73
2022/11/02 11:17:01;;;;;;;31.00;15.60;;;15.70;99.90;;;;;;5106793;28;20760;-76
2022/11/02 11:19:34;;;;;;;27.70;14.97;;;15.70;99.90;;;;;;5088029;28;20978;-72
2022/11/02 11:22:00;;;;;;;23.73;14.53;;;15.70;99.90;;;;;;5089810;28;20408;-72
2022/11/02 11:24:28;;;;;;;25.67;14.33;;;15.80;99.90;;;;;;5089087;28;20480;-76
2022/11/02 11:27:05;;;;;;;26.70;15.17;;;15.80;99.90;;;;;;5106307;28;20425;-72
2022/11/02 11:29:32;;;;;;;25.90;15.50;;;15.80;99.90;;;;;;5103857;28;20539;-72
2022/11/02 11:32:00;;;;;;;23.47;14.20;;;15.90;99.90;;;;;;5108315;28;20502;-73
2022/11/02 11:34:30;;;;;;;25.90;15.33;;;15.80;99.90;;;;;;5108752;28;20440;-76
2022/11/02 11:37:10;;;;;;;31.37;14.50;;;15.90;99.90;;;;;;5091765;28;20409;-77
2022/11/02 11:39:39;;;;;;;26.53;14.93;;;15.90;99.90;;;;;;5091404;28;20446;-72
2022/11/02 11:42:20;;;;;;;21.63;14.60;;;16.00;99.90;;;;;;5090290;28;20404;-72
2022/11/02 11:45:03;;;;;;;21.03;13.17;;;16.00;99.90;;;;;;5092274;28;20532;-72
2022/11/02 11:47:38;;;;;;;27.00;14.70;;;16.10;99.90;;;;;;5112435;28;20385;-77
2022/11/02 11:50:14;;;;;;;25.90;15.20;;;16.10;99.90;;;;;;5091864;28;20439;-76
2022/11/02 11:52:40;;;;;;;24.43;14.37;;;16.10;99.90;;;;;;5115081;28;20404;-76
2022/11/02 11:55:28;;;;;;;25.77;14.70;;;16.20;99.90;;;;;;5095509;28;20432;-73
2022/11/02 11:58:22;;;;;;;25.27;15.30;;;16.20;99.90;;;;;;5113655;28;20460;-75
2022/11/02 12:01:10;;;;;;;25.30;14.60;;;16.30;99.90;;;;;;5111536;28;20537;-72
2022/11/02 12:03:50;;;;;;;22.50;14.50;;;16.40;99.90;;;;;;5093634;28;20775;-76
2022/11/02 12:06:45;;;;;;;21.50;13.73;;;16.40;99.90;;;;;;5094930;28;20435;-76
2022/11/02 12:09:33;;;;;;;22.40;14.37;;;16.40;99.90;;;;;;5048152;28;20427;-73
2022/11/02 12:12:02;;;;;;;24.73;14.87;;;16.40;99.90;;;;;;5093302;28;20430;-73
2022/11/02 12:14:50;;;;;;;28.50;15.33;;;16.40;99.90;;;;;;5111537;28;20463;-77
2022/11/02 12:17:42;;;;;;;24.53;14.93;;;16.50;99.90;;;;;;5093060;28;20823;-77
2022/11/02 12:20:48;;;;;;;27.43;13.57;;;16.50;99.90;;;;;;5091895;28;20460;-76
2022/11/02 12:23:56;;;;;;;23.90;13.00;;;16.50;99.90;;;;;;5062870;28;20425;-76
2022/11/02 12:26:43;;;;;;;22.70;14.33;;;16.50;99.90;;;;;;5073688;28;20529;-76
2022/11/02 12:29:37;;;;;;;25.70;15.17;;;16.50;99.90;;;;;;5093730;28;20484;-77
2022/11/02 12:32:17;;;;;;;24.67;13.60;;;16.40;99.90;;;;;;5110916;28;20431;-76
2022/11/02 12:35:14;;;;;;;24.30;14.10;;;16.40;99.90;;;;;;5108916;27;20455;-72
2022/11/02 12:38:05;;;;;;;22.97;14.63;;;16.50;99.90;;;;;;5107936;28;20456;-76
2022/11/02 12:41:00;;;;;;;25.30;14.57;;;16.50;99.90;;;;;;5089790;28;20450;-76
2022/11/02 12:43:48;;;;;;;24.20;15.33;;;16.60;99.90;;;;;;5090637;28;21010;-77
2022/11/02 12:46:32;;;;;;;26.30;14.20;;;16.60;99.90;;;;;;5112723;28;20431;-76
2022/11/02 12:49:24;;;;;;;25.50;14.20;;;16.70;99.90;;;;;;5112938;28;20431;-73
2022/11/02 12:51:56;;;;;;;26.40;13.30;;;16.70;99.90;;;;;;5113144;28;20495;-72
2022/11/02 12:54:40;;;;;;;27.07;15.03;;;16.70;99.90;;;;;;5114301;28;20460;-73
2022/11/02 12:57:13;;;;;;;22.57;13.00;;;16.80;99.90;;;;;;5112074;28;20446;-76
2022/11/02 12:59:41;;;;;;;25.00;15.00;;;16.90;99.90;;;;;;5093757;28;20449;-73
2022/11/02 13:02:26;;;;;;;22.40;13.90;;;16.90;99.90;;;;;;5090786;28;20986;-76